createdAt,value
2019-05-23T00:01:19.478Z,101276.22
2019-05-23T00:02:40.960Z,101271.52
2019-05-23T00:04:03.150Z,101265.45
2019-05-23T00:05:24.876Z,101270.64
2019-05-23T00:06:44.490Z,101274.19
2019-05-23T00:08:05.828Z,101279.23
2019-05-23T00:09:19.570Z,101282.24
2019-05-23T00:10:23.023Z,101276.14
2019-05-23T00:11:39.769Z,101281.36
2019-05-23T00:13:02.926Z,101282.02
2019-05-23T00:14:20.164Z,101271.08
2019-05-23T00:15:32.020Z,101285.05
2019-05-23T00:16:35.513Z,101278.64
2019-05-23T00:17:37.292Z,101280.96
2019-05-23T00:18:38.673Z,101282.11
2019-05-23T00:19:41.676Z,101279.59
2019-05-23T00:20:45.262Z,101279.25
2019-05-23T00:21:48.459Z,101277.72
2019-05-23T00:22:50.749Z,101276.89
2019-05-23T00:23:52.320Z,101281.77
2019-05-23T00:24:55.238Z,101280.76
2019-05-23T00:25:56.628Z,101274.03
2019-05-23T00:26:58.112Z,101272.55
2019-05-23T00:28:00.833Z,101273.89
2019-05-23T00:29:10.152Z,101284.02
2019-05-23T00:30:08.368Z,101276.78
2019-05-23T00:31:20.497Z,101279.81
2019-05-23T00:32:37.448Z,101273.08
2019-05-23T00:33:40.532Z,101279.84
2019-05-23T00:34:42.321Z,101281.70
2019-05-23T00:35:44.825Z,101283.19
2019-05-23T00:36:46.535Z,101274.95
2019-05-23T00:37:48.651Z,101275.44
2019-05-23T00:38:51.213Z,101280.33
2019-05-23T00:39:53.561Z,101283.51
2019-05-23T00:40:55.181Z,101279.61
2019-05-23T00:41:56.972Z,101279.98
2019-05-23T00:42:58.868Z,101278.75
2019-05-23T00:44:00.946Z,101278.27
2019-05-23T00:45:06.143Z,101279.61
2019-05-23T00:46:08.830Z,101282.68
2019-05-23T00:47:10.514Z,101277.64
2019-05-23T00:48:13.016Z,101283.37
2019-05-23T00:49:15.304Z,101275.77
2019-05-23T00:50:19.593Z,101283.70
2019-05-23T00:51:23.005Z,101272.42
2019-05-23T00:52:24.795Z,101275.80
2019-05-23T00:53:28.096Z,101277.81
2019-05-23T00:54:29.775Z,101277.66
2019-05-23T00:55:31.967Z,101279.49
2019-05-23T00:56:35.259Z,101283.88
2019-05-23T00:57:39.244Z,101270.08
2019-05-23T00:58:41.633Z,101275.31
2019-05-23T00:59:43.513Z,101274.45
2019-05-23T01:00:45.016Z,101273.11
2019-05-23T01:01:48.424Z,101271.77
2019-05-23T01:02:51.495Z,101274.45
2019-05-23T01:03:54.086Z,101269.59
2019-05-23T01:04:55.588Z,101267.72
2019-05-23T01:05:58.001Z,101267.72
2019-05-23T01:06:59.921Z,101270.42
2019-05-23T01:08:01.890Z,101269.41
2019-05-23T01:09:06.428Z,101273.97
2019-05-23T01:10:11.976Z,101274.80
2019-05-23T01:11:15.633Z,101276.14
2019-05-23T01:12:17.740Z,101277.00
2019-05-23T01:13:20.153Z,101274.80
2019-05-23T01:14:21.582Z,101273.11
2019-05-23T01:15:24.077Z,101279.84
2019-05-23T01:16:29.188Z,101275.45
2019-05-23T01:17:31.407Z,101287.08
2019-05-23T01:18:32.886Z,101284.87
2019-05-23T01:19:36.496Z,101292.61
2019-05-23T01:20:49.167Z,101288.09
2019-05-23T01:22:01.318Z,101288.23
2019-05-23T01:23:04.335Z,101296.98
2019-05-23T01:24:19.872Z,101297.85
2019-05-23T01:25:22.089Z,101299.68
2019-05-23T01:26:23.721Z,101288.23
2019-05-23T01:27:27.251Z,101296.83
2019-05-23T01:28:29.258Z,101293.79
2019-05-23T01:29:37.845Z,101291.58
2019-05-23T01:30:40.507Z,101293.27
2019-05-23T01:31:43.981Z,101296.30
2019-05-23T01:32:47.600Z,101293.12
2019-05-23T01:33:49.878Z,101289.92
2019-05-23T01:34:51.897Z,101295.30
2019-05-23T01:35:53.299Z,101282.84
2019-05-23T01:36:55.014Z,101291.78
2019-05-23T01:37:57.625Z,101285.20
2019-05-23T01:39:01.057Z,101281.16
2019-05-23T01:40:04.849Z,101285.05
2019-05-23T01:41:06.232Z,101280.67
2019-05-23T01:42:08.785Z,101283.19
2019-05-23T01:43:11.467Z,101283.02
2019-05-23T01:44:13.664Z,101282.16
2019-05-23T01:45:15.987Z,101275.44
2019-05-23T01:46:18.537Z,101271.05
2019-05-23T01:47:20.405Z,101274.09
2019-05-23T01:48:22.397Z,101272.73
2019-05-23T01:49:24.257Z,101274.09
2019-05-23T01:50:26.429Z,101280.33
2019-05-23T01:51:28.438Z,101277.13
2019-05-23T01:52:30.913Z,101277.81
2019-05-23T01:53:32.924Z,101280.84
2019-05-23T01:54:35.969Z,101282.53
2019-05-23T01:55:37.561Z,101275.45
2019-05-23T01:56:39.452Z,101273.08
2019-05-23T01:57:41.329Z,101272.28
2019-05-23T01:58:42.715Z,101272.77
2019-05-23T01:59:44.390Z,101270.94
2019-05-23T02:00:46.777Z,101271.77
2019-05-23T02:01:48.791Z,101265.03
2019-05-23T02:02:50.354Z,101261.52
2019-05-23T02:03:52.851Z,101267.38
2019-05-23T02:04:54.673Z,101260.51
2019-05-23T02:05:56.459Z,101262.00
2019-05-23T02:06:58.171Z,101253.92
2019-05-23T02:08:00.069Z,101256.80
2019-05-23T02:09:02.270Z,101261.17
2019-05-23T02:10:06.478Z,101257.13
2019-05-23T02:11:10.046Z,101261.66
2019-05-23T02:12:11.684Z,101263.52
2019-05-23T02:13:13.159Z,101267.56
2019-05-23T02:14:14.674Z,101265.69
2019-05-23T02:15:16.182Z,101271.08
2019-05-23T02:16:18.972Z,101273.77
2019-05-23T02:17:20.949Z,101277.47
2019-05-23T02:18:25.054Z,101279.81
2019-05-23T02:19:27.547Z,101273.95
2019-05-23T02:20:29.282Z,101269.56
2019-05-23T02:21:30.962Z,101276.78
2019-05-23T02:22:32.765Z,101274.61
2019-05-23T02:23:34.141Z,101281.81
2019-05-23T02:24:36.150Z,101281.44
2019-05-23T02:25:37.635Z,101284.31
2019-05-23T02:26:39.121Z,101281.62
2019-05-23T02:27:40.840Z,101272.69
2019-05-23T02:28:43.733Z,101268.30
2019-05-23T02:29:45.123Z,101266.30
2019-05-23T02:30:47.384Z,101260.91
2019-05-23T02:31:48.855Z,101259.75
2019-05-23T02:32:51.557Z,101260.91
2019-05-23T02:33:53.236Z,101257.88
2019-05-23T02:34:55.144Z,101260.09
2019-05-23T02:35:56.723Z,101256.87
2019-05-23T02:37:00.315Z,101260.43
2019-05-23T02:38:12.803Z,101257.39
2019-05-23T02:39:33.836Z,101251.50
2019-05-23T02:40:37.106Z,101253.56
2019-05-23T02:41:40.476Z,101259.28
2019-05-23T02:42:43.887Z,101247.12
2019-05-23T02:43:47.902Z,101249.12
2019-05-23T02:44:50.416Z,101242.72
2019-05-23T02:46:03.769Z,101248.09
2019-05-23T02:47:15.923Z,101243.23
2019-05-23T02:48:19.285Z,101240.20
2019-05-23T02:49:23.298Z,101247.09
2019-05-23T02:50:38.027Z,101243.37
2019-05-23T02:51:41.321Z,101242.03
2019-05-23T02:52:49.196Z,101247.61
2019-05-23T02:53:53.602Z,101244.23
2019-05-23T02:54:55.573Z,101242.38
2019-05-23T02:56:00.968Z,101239.69
2019-05-23T02:57:03.772Z,101245.92
2019-05-23T02:58:15.384Z,101239.69
2019-05-23T02:59:41.202Z,101237.85
2019-05-23T03:00:54.944Z,101245.27
2019-05-23T03:02:32.970Z,101241.05
2019-05-23T03:03:35.253Z,101239.54
2019-05-23T03:04:37.982Z,101236.67
2019-05-23T03:05:40.460Z,101245.24
2019-05-23T03:06:43.659Z,101246.39
2019-05-23T03:07:45.258Z,101241.66
2019-05-23T03:08:47.958Z,101248.39
2019-05-23T03:09:51.174Z,101244.84
2019-05-23T03:11:16.112Z,101246.70
2019-05-23T03:12:17.791Z,101250.56
2019-05-23T03:13:21.558Z,101243.03
2019-05-23T03:14:24.928Z,101239.66
2019-05-23T03:15:26.926Z,101241.14
2019-05-23T03:16:31.903Z,101244.70
2019-05-23T03:17:38.105Z,101234.59
2019-05-23T03:18:41.994Z,101231.39
2019-05-23T03:19:53.652Z,101231.91
2019-05-23T03:20:57.742Z,101229.21
2019-05-23T03:22:20.652Z,101231.93
2019-05-23T03:23:23.040Z,101235.97
2019-05-23T03:24:24.525Z,101237.33
2019-05-23T03:25:36.175Z,101234.48
2019-05-23T03:26:50.235Z,101239.00
2019-05-23T03:27:52.604Z,101233.81
2019-05-23T03:28:53.989Z,101240.37
2019-05-23T03:29:56.966Z,101235.65
2019-05-23T03:31:29.530Z,101233.47
2019-05-23T03:32:38.121Z,101228.92
2019-05-23T03:33:35.589Z,101231.15
2019-05-23T03:34:38.963Z,101234.33
2019-05-23T03:35:42.271Z,101227.91
2019-05-23T03:36:44.146Z,101231.13
2019-05-23T03:37:46.868Z,101237.33
2019-05-23T03:38:49.125Z,101240.88
2019-05-23T03:39:51.008Z,101234.50
2019-05-23T03:40:52.800Z,101234.33
2019-05-23T03:41:55.779Z,101231.63
2019-05-23T03:42:57.859Z,101233.32
2019-05-23T03:44:01.149Z,101225.77
2019-05-23T03:45:04.132Z,101228.80
2019-05-23T03:46:17.026Z,101229.63
2019-05-23T03:47:19.916Z,101225.59
2019-05-23T03:48:23.196Z,101231.31
2019-05-23T03:49:26.584Z,101224.59
2019-05-23T03:50:27.969Z,101225.11
2019-05-23T03:51:30.359Z,101221.06
2019-05-23T03:52:32.949Z,101220.20
2019-05-23T03:53:36.245Z,101224.59
2019-05-23T03:54:39.538Z,101223.76
2019-05-23T03:55:41.977Z,101225.59
2019-05-23T03:56:46.017Z,101224.10
2019-05-23T03:57:48.893Z,101221.89
2019-05-23T03:58:51.310Z,101220.55
2019-05-23T03:59:53.184Z,101223.58
2019-05-23T04:00:56.490Z,101217.86
2019-05-23T04:01:57.976Z,101218.86
2019-05-23T04:03:01.986Z,101221.06
2019-05-23T04:04:04.453Z,101222.89
2019-05-23T04:05:07.222Z,101225.93
2019-05-23T04:06:09.389Z,101230.48
2019-05-23T04:07:12.289Z,101232.17
2019-05-23T04:08:13.668Z,101234.00
2019-05-23T04:09:15.462Z,101235.87
2019-05-23T04:10:17.548Z,101229.63
2019-05-23T04:11:19.550Z,101243.08
2019-05-23T04:12:20.943Z,101238.05
2019-05-23T04:13:23.025Z,101235.00
2019-05-23T04:14:24.807Z,101241.39
2019-05-23T04:15:28.023Z,101241.05
2019-05-23T04:16:30.852Z,101248.64
2019-05-23T04:17:32.559Z,101240.05
2019-05-23T04:18:34.199Z,101227.11
2019-05-23T04:19:36.012Z,101235.67
2019-05-23T04:20:37.537Z,101232.49
2019-05-23T04:21:39.022Z,101230.80
2019-05-23T04:22:41.220Z,101230.28
2019-05-23T04:23:42.889Z,101235.67
2019-05-23T04:24:44.382Z,101247.64
2019-05-23T04:25:45.997Z,101244.42
2019-05-23T04:26:47.502Z,101243.60
2019-05-23T04:27:49.213Z,101243.08
2019-05-23T04:28:50.635Z,101250.81
2019-05-23T04:29:52.349Z,101250.13
2019-05-23T04:30:54.103Z,101250.13
2019-05-23T04:32:07.020Z,101249.12
2019-05-23T04:32:58.893Z,101250.47
2019-05-23T04:34:00.282Z,101241.05
2019-05-23T04:35:04.266Z,101247.30
2019-05-23T04:36:06.261Z,101237.88
2019-05-23T04:37:07.858Z,101237.70
2019-05-23T04:38:10.169Z,101233.17
2019-05-23T04:39:12.689Z,101236.35
2019-05-23T04:40:14.598Z,101235.34
2019-05-23T04:41:15.997Z,101237.55
2019-05-23T04:42:17.374Z,101235.87
2019-05-23T04:43:19.109Z,101233.17
2019-05-23T04:44:20.679Z,101244.94
2019-05-23T04:45:23.121Z,101244.42
2019-05-23T04:46:25.129Z,101244.94
2019-05-23T04:47:26.939Z,101242.25
2019-05-23T04:48:28.762Z,101238.70
2019-05-23T04:49:31.174Z,101245.77
2019-05-23T04:50:32.878Z,101244.42
2019-05-23T04:51:34.504Z,101246.44
2019-05-23T04:52:36.693Z,101249.81
2019-05-23T04:53:38.081Z,101248.46
2019-05-23T04:54:40.252Z,101249.33
2019-05-23T04:55:43.045Z,101241.39
2019-05-23T04:56:44.840Z,101245.77
2019-05-23T04:57:46.249Z,101240.05
2019-05-23T04:58:48.577Z,101241.05
2019-05-23T04:59:50.392Z,101239.36
2019-05-23T05:00:53.615Z,101235.19
2019-05-23T05:01:57.117Z,101235.53
2019-05-23T05:02:58.799Z,101241.25
2019-05-23T05:04:00.617Z,101237.70
2019-05-23T05:05:03.881Z,101243.08
2019-05-23T05:06:05.682Z,101242.25
2019-05-23T05:07:07.706Z,101244.42
2019-05-23T05:08:11.303Z,101248.80
2019-05-23T05:09:14.593Z,101255.39
2019-05-23T05:10:19.605Z,101249.15
2019-05-23T05:11:21.116Z,101257.11
2019-05-23T05:12:23.677Z,101257.28
2019-05-23T05:13:26.156Z,101249.20
2019-05-23T05:14:28.083Z,101255.79
2019-05-23T05:15:29.699Z,101255.27
2019-05-23T05:16:31.874Z,101259.36
2019-05-23T05:17:33.585Z,101264.09
2019-05-23T05:18:35.765Z,101260.21
2019-05-23T05:19:37.756Z,101260.55
2019-05-23T05:20:39.748Z,101260.75
2019-05-23T05:21:41.133Z,101267.64
2019-05-23T05:22:42.969Z,101270.22
2019-05-23T05:23:44.350Z,101269.20
2019-05-23T05:24:45.748Z,101265.33
2019-05-23T05:25:47.228Z,101277.98
2019-05-23T05:26:48.616Z,101268.58
2019-05-23T05:27:50.455Z,101272.98
2019-05-23T05:28:52.098Z,101273.66
2019-05-23T05:29:53.807Z,101273.68
2019-05-23T05:30:55.612Z,101277.77
2019-05-23T05:31:57.123Z,101278.79
2019-05-23T05:32:58.825Z,101281.64
2019-05-23T05:34:00.201Z,101287.57
2019-05-23T05:35:01.899Z,101284.03
2019-05-23T05:36:03.655Z,101285.91
2019-05-23T05:37:05.204Z,101286.93
2019-05-23T05:38:06.627Z,101289.30
2019-05-23T05:39:09.937Z,101285.45
2019-05-23T05:40:13.160Z,101291.71
2019-05-23T05:41:14.577Z,101294.59
2019-05-23T05:42:16.495Z,101295.62
2019-05-23T05:43:18.841Z,101296.12
2019-05-23T05:44:20.581Z,101293.61
2019-05-23T05:45:22.440Z,101295.98
2019-05-23T05:46:24.290Z,101293.48
2019-05-23T05:47:25.977Z,101294.83
2019-05-23T05:48:27.879Z,101287.91
2019-05-23T05:49:29.477Z,101285.41
2019-05-23T05:50:30.969Z,101291.81
2019-05-23T05:51:32.352Z,101287.25
2019-05-23T05:52:34.246Z,101287.78
2019-05-23T05:53:36.365Z,101284.56
2019-05-23T05:54:37.956Z,101286.95
2019-05-23T05:55:39.367Z,101288.80
2019-05-23T05:56:40.936Z,101289.81
2019-05-23T05:57:42.342Z,101286.44
2019-05-23T05:58:43.756Z,101290.48
2019-05-23T05:59:45.134Z,101295.20
2019-05-23T06:00:48.832Z,101297.91
2019-05-23T06:01:50.717Z,101295.20
2019-05-23T06:03:03.619Z,101296.22
2019-05-23T06:03:55.811Z,101290.00
2019-05-23T06:04:57.214Z,101293.86
2019-05-23T06:06:17.265Z,101290.16
2019-05-23T06:07:29.531Z,101292.03
2019-05-23T06:08:32.855Z,101298.77
2019-05-23T06:09:35.944Z,101295.89
2019-05-23T06:10:38.029Z,101291.17
2019-05-23T06:11:39.436Z,101297.58
2019-05-23T06:12:41.709Z,101293.53
2019-05-23T06:13:43.297Z,101294.05
2019-05-23T06:14:46.597Z,101302.63
2019-05-23T06:15:50.875Z,101294.05
2019-05-23T06:16:53.041Z,101300.80
2019-05-23T06:17:54.513Z,101293.53
2019-05-23T06:18:56.324Z,101297.91
2019-05-23T06:19:58.236Z,101299.78
2019-05-23T06:20:59.736Z,101301.96
2019-05-23T06:22:01.518Z,101293.05
2019-05-23T06:23:03.153Z,101299.60
2019-05-23T06:24:04.937Z,101287.31
2019-05-23T06:25:08.372Z,101287.80
2019-05-23T06:26:12.914Z,101287.80
2019-05-23T06:27:16.625Z,101284.09
2019-05-23T06:28:19.106Z,101287.66
2019-05-23T06:29:21.365Z,101294.87
2019-05-23T06:30:24.373Z,101300.61
2019-05-23T06:31:25.749Z,101302.97
2019-05-23T06:32:28.565Z,101299.78
2019-05-23T06:33:30.143Z,101303.65
2019-05-23T06:34:31.841Z,101301.63
2019-05-23T06:35:33.430Z,101308.70
2019-05-23T06:36:35.230Z,101297.58
2019-05-23T06:37:39.044Z,101302.30
2019-05-23T06:38:40.853Z,101294.20
2019-05-23T06:39:43.363Z,101306.01
2019-05-23T06:40:44.900Z,101311.10
2019-05-23T06:41:46.561Z,101299.45
2019-05-23T06:42:50.938Z,101306.05
2019-05-23T06:43:51.344Z,101308.74
2019-05-23T06:44:53.540Z,101304.70
2019-05-23T06:45:55.078Z,101306.20
2019-05-23T06:46:56.843Z,101309.41
2019-05-23T06:47:58.764Z,101313.09
2019-05-23T06:49:00.587Z,101305.52
2019-05-23T06:50:08.666Z,101310.05
2019-05-23T06:51:10.209Z,101305.67
2019-05-23T06:52:11.587Z,101314.63
2019-05-23T06:53:13.090Z,101303.98
2019-05-23T06:54:14.766Z,101302.81
2019-05-23T06:55:16.434Z,101309.71
2019-05-23T06:56:18.094Z,101307.02
2019-05-23T06:57:20.097Z,101301.28
2019-05-23T06:58:22.218Z,101303.16
2019-05-23T06:59:24.586Z,101306.34
2019-05-23T07:00:27.702Z,101295.55
2019-05-23T07:01:29.198Z,101302.14
2019-05-23T07:02:32.188Z,101302.48
2019-05-23T07:03:42.601Z,101302.14
2019-05-23T07:04:37.262Z,101302.28
2019-05-23T07:05:38.668Z,101304.83
2019-05-23T07:06:40.081Z,101292.84
2019-05-23T07:07:41.753Z,101298.91
2019-05-23T07:08:43.149Z,101310.04
2019-05-23T07:09:44.620Z,101303.97
2019-05-23T07:10:46.026Z,101310.22
2019-05-23T07:11:48.126Z,101309.36
2019-05-23T07:12:49.537Z,101313.41
2019-05-23T07:13:51.138Z,101306.66
2019-05-23T07:14:52.545Z,101308.53
2019-05-23T07:15:54.056Z,101307.67
2019-05-23T07:16:55.457Z,101297.56
2019-05-23T07:17:58.005Z,101300.93
2019-05-23T07:18:59.430Z,101292.50
2019-05-23T07:20:03.625Z,101285.77
2019-05-23T07:21:07.534Z,101288.98
2019-05-23T07:22:08.931Z,101285.77
2019-05-23T07:23:11.104Z,101284.41
2019-05-23T07:25:26.890Z,101270.26
2019-05-23T07:26:28.910Z,101273.95
2019-05-23T07:27:31.566Z,101275.64
2019-05-23T07:28:33.626Z,101275.13
2019-05-23T07:29:35.055Z,101271.94
2019-05-23T07:30:36.432Z,101268.72
2019-05-23T07:31:37.935Z,101270.59
2019-05-23T07:32:39.452Z,101267.03
2019-05-23T07:33:59.923Z,101270.59
2019-05-23T07:34:45.862Z,101267.55
2019-05-23T07:35:47.424Z,101262.50
2019-05-23T07:36:49.232Z,101272.42
2019-05-23T07:37:50.864Z,101272.95
2019-05-23T07:38:52.448Z,101256.77
2019-05-23T07:39:53.949Z,101270.25
2019-05-23T07:40:56.342Z,101272.61
2019-05-23T07:41:58.041Z,101271.08
2019-05-23T07:43:00.360Z,101269.73
2019-05-23T07:44:01.781Z,101276.99
2019-05-23T07:45:04.575Z,101274.78
2019-05-23T07:46:06.908Z,101277.66
2019-05-23T07:47:10.201Z,101278.34
2019-05-23T07:48:12.169Z,101282.05
2019-05-23T07:49:14.049Z,101291.82
2019-05-23T07:50:15.930Z,101283.73
2019-05-23T07:51:17.710Z,101281.52
2019-05-23T07:52:19.109Z,101285.56
2019-05-23T07:53:39.357Z,101282.53
2019-05-23T07:54:48.778Z,101280.70
2019-05-23T07:55:52.273Z,101281.86
2019-05-23T07:56:53.636Z,101282.88
2019-05-23T07:57:55.149Z,101280.84
2019-05-23T07:58:56.572Z,101281.52
2019-05-23T07:59:57.956Z,101286.08
2019-05-23T08:01:01.346Z,101279.00
2019-05-23T08:02:13.996Z,101289.45
2019-05-23T08:03:16.494Z,101287.09
2019-05-23T08:04:21.741Z,101281.17
2019-05-23T08:05:22.637Z,101289.79
2019-05-23T08:06:24.335Z,101287.42
2019-05-23T08:07:26.705Z,101286.08
2019-05-23T08:08:28.192Z,101287.42
2019-05-23T08:09:29.901Z,101286.08
2019-05-23T08:10:34.101Z,101296.52
2019-05-23T08:11:35.584Z,101294.50
2019-05-23T08:12:37.071Z,101290.27
2019-05-23T08:13:38.765Z,101298.88
2019-05-23T08:14:40.361Z,101288.09
2019-05-23T08:15:41.759Z,101274.28
2019-05-23T08:16:43.352Z,101294.49
2019-05-23T08:17:45.444Z,101291.28
2019-05-23T08:18:47.010Z,101284.20
2019-05-23T08:19:50.310Z,101283.71
2019-05-23T08:20:52.201Z,101287.41
2019-05-23T08:21:53.618Z,101287.75
2019-05-23T08:22:55.325Z,101283.71
2019-05-23T08:23:56.830Z,101279.66
2019-05-23T08:24:58.259Z,101296.66
2019-05-23T08:26:00.156Z,101289.77
2019-05-23T08:27:02.177Z,101292.13
2019-05-23T08:28:03.981Z,101293.14
2019-05-23T08:29:24.866Z,101286.89
2019-05-23T08:30:10.649Z,101290.45
2019-05-23T08:31:12.238Z,101288.09
2019-05-23T08:32:15.043Z,101289.10
2019-05-23T08:33:17.037Z,101297.53
2019-05-23T08:34:18.524Z,101295.32
2019-05-23T08:35:20.237Z,101287.23
2019-05-23T08:36:22.348Z,101287.75
2019-05-23T08:37:23.959Z,101286.75
2019-05-23T08:38:25.770Z,101279.14
2019-05-23T08:39:28.080Z,101276.97
2019-05-23T08:40:30.201Z,101274.61
2019-05-23T08:41:31.776Z,101274.28
2019-05-23T08:42:34.373Z,101279.66
2019-05-23T08:43:36.457Z,101282.36
2019-05-23T08:44:38.882Z,101275.62
2019-05-23T08:45:40.377Z,101274.28
2019-05-23T08:46:42.392Z,101283.71
2019-05-23T08:47:43.809Z,101280.49
2019-05-23T08:48:45.390Z,101284.39
2019-05-23T08:49:46.856Z,101277.31
2019-05-23T08:50:51.368Z,101277.13
2019-05-23T08:51:51.999Z,101277.98
2019-05-23T08:52:53.443Z,101281.85
2019-05-23T08:53:54.833Z,101275.45
2019-05-23T08:54:59.827Z,101274.63
2019-05-23T08:56:01.349Z,101268.89
2019-05-23T08:57:04.821Z,101273.27
2019-05-23T08:58:08.336Z,101267.88
2019-05-23T08:59:10.116Z,101265.67
2019-05-23T09:00:12.814Z,101263.98
2019-05-23T09:01:14.938Z,101268.55
2019-05-23T09:02:17.358Z,101270.39
2019-05-23T09:03:19.322Z,101272.74
2019-05-23T09:04:21.015Z,101273.27
2019-05-23T09:05:28.096Z,101276.97
2019-05-23T09:06:30.124Z,101268.89
2019-05-23T09:07:32.083Z,101274.77
2019-05-23T09:08:33.585Z,101276.97
2019-05-23T09:09:35.460Z,101274.42
2019-05-23T09:10:37.673Z,101268.20
2019-05-23T09:11:39.692Z,101275.77
2019-05-23T09:12:41.891Z,101268.70
2019-05-23T09:13:43.787Z,101271.23
2019-05-23T09:14:45.280Z,101270.05
2019-05-23T09:15:47.072Z,101267.34
2019-05-23T09:16:48.606Z,101270.05
2019-05-23T09:17:53.628Z,101267.87
2019-05-23T09:18:54.173Z,101263.83
2019-05-23T09:19:55.715Z,101274.95
2019-05-23T09:20:57.106Z,101266.00
2019-05-23T09:21:59.118Z,101272.25
2019-05-23T09:23:00.614Z,101265.52
2019-05-23T09:24:03.398Z,101272.25
2019-05-23T09:25:05.601Z,101268.55
2019-05-23T09:26:07.021Z,101272.41
2019-05-23T09:27:09.449Z,101269.22
2019-05-23T09:28:12.327Z,101270.57
2019-05-23T09:29:14.084Z,101268.36
2019-05-23T09:30:19.864Z,101263.31
2019-05-23T09:31:22.052Z,101265.52
2019-05-23T09:32:23.964Z,101265.33
2019-05-23T09:33:25.446Z,101263.16
2019-05-23T09:34:27.143Z,101263.16
2019-05-23T09:35:29.257Z,101269.04
2019-05-23T09:36:31.132Z,101271.73
2019-05-23T09:37:33.327Z,101270.57
2019-05-23T09:38:34.744Z,101272.25
2019-05-23T09:39:38.061Z,101272.08
2019-05-23T09:40:39.473Z,101277.98
2019-05-23T09:41:41.190Z,101272.08
2019-05-23T09:42:42.945Z,101272.94
2019-05-23T09:43:44.324Z,101278.33
2019-05-23T09:44:45.854Z,101272.41
2019-05-23T09:45:47.338Z,101273.09
2019-05-23T09:46:48.701Z,101267.55
2019-05-23T09:47:51.521Z,101278.67
2019-05-23T09:48:53.133Z,101266.20
2019-05-23T09:49:55.027Z,101267.89
2019-05-23T09:50:57.582Z,101259.80
2019-05-23T09:52:01.327Z,101267.89
2019-05-23T09:53:02.385Z,101267.03
2019-05-23T09:54:03.808Z,101268.90
2019-05-23T09:55:06.915Z,101265.34
2019-05-23T09:56:08.314Z,101262.30
2019-05-23T09:57:11.198Z,101263.66
2019-05-23T09:58:12.668Z,101260.13
2019-05-23T09:59:14.111Z,101261.97
2019-05-23T10:00:17.689Z,101260.63
2019-05-23T10:01:19.673Z,101263.98
2019-05-23T10:02:21.273Z,101262.16
2019-05-23T10:03:22.909Z,101263.98
2019-05-23T10:04:25.394Z,101272.59
2019-05-23T10:05:41.804Z,101265.18
2019-05-23T10:06:30.454Z,101267.36
2019-05-23T10:07:32.070Z,101266.53
2019-05-23T10:08:33.492Z,101272.59
2019-05-23T10:09:34.977Z,101266.34
2019-05-23T10:10:36.479Z,101264.66
2019-05-23T10:11:37.862Z,101267.01
2019-05-23T10:12:39.261Z,101269.03
2019-05-23T10:13:40.884Z,101267.87
2019-05-23T10:14:42.325Z,101273.26
2019-05-23T10:15:54.973Z,101260.79
2019-05-23T10:16:56.333Z,101265.17
2019-05-23T10:18:00.715Z,101261.47
2019-05-23T10:19:01.251Z,101258.92
2019-05-23T10:20:06.045Z,101262.48
2019-05-23T10:21:07.622Z,101260.45
2019-05-23T10:22:09.900Z,101262.14
2019-05-23T10:23:11.408Z,101258.77
2019-05-23T10:24:13.391Z,101252.03
2019-05-23T10:25:14.806Z,101257.75
2019-05-23T10:26:16.704Z,101257.42
2019-05-23T10:27:19.524Z,101252.52
2019-05-23T10:28:22.042Z,101248.32
2019-05-23T10:29:23.572Z,101255.06
2019-05-23T10:30:25.194Z,101255.06
2019-05-23T10:31:26.682Z,101257.42
2019-05-23T10:32:28.176Z,101259.11
2019-05-23T10:33:29.567Z,101261.80
2019-05-23T10:34:30.959Z,101258.09
2019-05-23T10:35:33.134Z,101261.28
2019-05-23T10:36:34.524Z,101254.05
2019-05-23T10:37:35.907Z,101251.70
2019-05-23T10:38:37.294Z,101250.69
2019-05-23T10:39:45.206Z,101255.73
2019-05-23T10:40:46.817Z,101253.72
2019-05-23T10:41:48.227Z,101252.86
2019-05-23T10:42:49.839Z,101248.48
2019-05-23T10:43:52.457Z,101256.42
2019-05-23T10:44:54.469Z,101262.30
2019-05-23T10:45:55.953Z,101257.91
2019-05-23T10:46:57.344Z,101253.38
2019-05-23T10:47:59.234Z,101253.05
2019-05-23T10:49:00.717Z,101253.87
2019-05-23T10:50:08.471Z,101243.09
2019-05-23T10:51:08.997Z,101244.95
2019-05-23T10:52:10.463Z,101243.61
2019-05-23T10:53:12.261Z,101248.66
2019-05-23T10:54:13.651Z,101245.44
2019-05-23T10:55:15.264Z,101241.92
2019-05-23T10:56:20.512Z,101244.77
2019-05-23T10:57:21.270Z,101241.92
2019-05-23T10:58:22.648Z,101244.28
2019-05-23T10:59:24.633Z,101243.76
2019-05-23T11:00:28.459Z,101238.89
2019-05-23T11:01:30.229Z,101245.62
2019-05-23T11:02:32.629Z,101238.22
2019-05-23T11:03:34.506Z,101241.59
2019-05-23T11:04:35.906Z,101242.93
2019-05-23T11:05:37.508Z,101239.89
2019-05-23T11:06:38.898Z,101243.42
2019-05-23T11:07:40.441Z,101240.23
2019-05-23T11:08:42.530Z,101236.19
2019-05-23T11:09:43.924Z,101235.33
2019-05-23T11:10:46.148Z,101242.93
2019-05-23T11:11:47.530Z,101240.72
2019-05-23T11:12:49.437Z,101242.93
2019-05-23T11:13:50.880Z,101235.85
2019-05-23T11:14:52.673Z,101246.64
2019-05-23T11:15:54.305Z,101243.42
2019-05-23T11:16:55.801Z,101244.28
2019-05-23T11:17:57.281Z,101240.23
2019-05-23T11:18:59.479Z,101240.23
2019-05-23T11:20:02.037Z,101244.09
2019-05-23T11:21:04.078Z,101246.30
2019-05-23T11:22:06.659Z,101242.60
2019-05-23T11:23:08.424Z,101241.25
2019-05-23T11:24:10.402Z,101234.66
2019-05-23T11:25:12.703Z,101230.13
2019-05-23T11:26:14.626Z,101239.91
2019-05-23T11:27:17.008Z,101233.16
2019-05-23T11:28:18.598Z,101232.64
2019-05-23T11:29:20.027Z,101226.77
2019-05-23T11:30:27.753Z,101223.06
2019-05-23T11:31:29.561Z,101226.42
2019-05-23T11:32:30.981Z,101226.58
2019-05-23T11:33:32.475Z,101236.54
2019-05-23T11:34:34.145Z,101229.80
2019-05-23T11:35:35.942Z,101234.33
2019-05-23T11:36:37.861Z,101227.93
2019-05-23T11:37:41.875Z,101230.63
2019-05-23T11:38:42.873Z,101229.80
2019-05-23T11:39:49.658Z,101233.66
2019-05-23T11:40:47.925Z,101235.00
2019-05-23T11:41:49.753Z,101238.56
2019-05-23T11:42:52.833Z,101235.86
2019-05-23T11:43:54.526Z,101241.59
2019-05-23T11:44:55.902Z,101234.52
2019-05-23T11:46:01.513Z,101239.39
2019-05-23T11:47:03.287Z,101238.05
2019-05-23T11:48:05.182Z,101237.22
2019-05-23T11:49:06.872Z,101236.87
2019-05-23T11:50:08.667Z,101231.14
2019-05-23T11:51:10.353Z,101234.67
2019-05-23T11:52:11.894Z,101232.16
2019-05-23T11:53:13.526Z,101232.49
2019-05-23T11:54:16.137Z,101229.45
2019-05-23T11:55:18.149Z,101225.08
2019-05-23T11:56:19.660Z,101231.81
2019-05-23T11:57:21.405Z,101234.85
2019-05-23T11:58:22.983Z,101230.47
2019-05-23T11:59:24.584Z,101233.66
2019-05-23T12:00:50.572Z,101227.77
2019-05-23T12:01:56.465Z,101225.56